Hunting Creek — WDF9526 — position and weather

sailwx.info

Track history (hours):
 
Tides and Currents Weather Stations Pressure Air Temp Water Temp Dewpoint Dewpoint Depression Visibility Wind Speed Wind Dir Waves Ship Positions

Hunting Creek

Owner: Vane Line Bunkering, Inc., Philadelphia, PA. More information available from US FCC via Universal Licensing System and Coast Guard Vessel Documentation Center.

Last reported at 2018-Apr-24 12:30 UTC. Time now 2018-Apr-24 12:42 UTC.
Position N 40°40' W 074°01'.

Length 31 m; draft 4.3 m.

Type: Towing. MMSI: 367506050.

Date/timePositionNaut miles runAvg speedWind from/ knotsBaromVisibWave heightAir tempDewpointWater temp
2018-Apr-24 12:30N 40°40' W 074°01'0 0.5
2018-Apr-24 12:01N 40°40' W 074°01'2 3.4
2018-Apr-24 11:31N 40°42' W 074°00'4 7.3
2018-Apr-24 11:00N 40°45' W 073°58'5 9.5
2018-Apr-24 10:26N 40°48' W 073°52'5 0.3
2018-Apr-23 15:03N 40°45' W 073°58'1 8.4
2018-Apr-23 14:58N 40°44' W 073°58'3 7.4
2018-Apr-23 14:30N 40°42' W 074°00'4 7.7
2018-Apr-23 13:59N 40°39' W 074°05'1 2.6
2018-Apr-23 13:29N 40°39' W 074°06'1 0.2
2018-Apr-23 10:22N 40°39' W 074°07'0 0.0
2018-Apr-23 09:50N 40°39' W 074°07'0 0.0
2018-Apr-23 05:01N 40°39' W 074°07'0 0.0
2018-Apr-23 04:57N 40°39' W 074°07'0 0.0
2018-Apr-23 01:53N 40°39' W 074°07'0 0.0
2018-Apr-23 01:25N 40°39' W 074°07'0 0.0
2018-Apr-23 00:40N 40°39' W 074°07'1 6.3
2018-Apr-23 00:30N 40°39' W 074°08'3 2.7
2018-Apr-22 23:32N 40°41' W 074°09'0 0.2
2018-Apr-22 23:30N 40°41' W 074°09'0 0.3
2018-Apr-22 23:01N 40°41' W 074°09'3 4.9
2018-Apr-22 22:29N 40°39' W 074°07'3 6.6
2018-Apr-22 22:00N 40°39' W 074°03'2 3.5
2018-Apr-22 21:31N 40°40' W 074°01'0 0.0
2018-Apr-22 21:01N 40°40' W 074°01'2 3.7
2018-Apr-22 20:30N 40°41' W 074°02'5 9.3
2018-Apr-22 20:00N 40°46' W 074°00'0 0.1
2018-Apr-22 16:43N 40°46' W 074°00'0 0.3
2018-Apr-22 16:24N 40°46' W 074°00'0 0.3
2018-Apr-22 15:54N 40°46' W 074°00'0 0.0
2018-Apr-22 13:12N 40°46' W 074°00'1 3.6
2018-Apr-22 12:59N 40°45' W 074°01'3 5.6
2018-Apr-22 12:31N 40°43' W 074°01'3 6.1
2018-Apr-22 12:01N 40°40' W 074°03'2 3.6
2018-Apr-22 11:30N 40°39' W 074°05'0 0.1
2018-Apr-22 11:01N 40°39' W 074°05'1 1.6
2018-Apr-22 10:30N 40°40' W 074°04'1 2.3
2018-Apr-22 10:00N 40°40' W 074°03'2 4.7
2018-Apr-22 09:30N 40°41' W 074°00'0 0.3
2018-Apr-22 09:00N 40°41' W 074°00'0 0.0
2018-Apr-22 08:30N 40°41' W 074°00'0 0.0
2018-Apr-22 08:00N 40°41' W 074°00'0 0.0
2018-Apr-22 07:31N 40°41' W 074°00'0 0.0
2018-Apr-22 07:01N 40°41' W 074°00'2 4.6
2018-Apr-22 06:30N 40°40' W 074°03'3 5.8
2018-Apr-22 06:00N 40°39' W 074°06'2 4.5
2018-Apr-22 05:31N 40°39' W 074°03'2 4.6
2018-Apr-22 05:00N 40°40' W 074°00'1 1.0
2018-Apr-22 04:30N 40°40' W 074°01'0 0.0
2018-Apr-22 04:00N 40°40' W 074°01'0 0.0
2018-Apr-22 03:30N 40°40' W 074°01'0 0.0
2018-Apr-22 03:01N 40°40' W 074°01'0 0.0
2018-Apr-22 02:30N 40°40' W 074°01'0 0.0
2018-Apr-22 02:01N 40°40' W 074°01'0 0.1
2018-Apr-22 01:30N 40°40' W 074°01'0 0.0
2018-Apr-22 01:00N 40°40' W 074°01'0 0.0
2018-Apr-22 00:30N 40°40' W 074°01'2 4.5
2018-Apr-22 00:00N 40°38' W 074°03'1 1.1
2018-Apr-21 23:30N 40°38' W 074°04'2 4.5
2018-Apr-21 23:01N 40°40' W 074°04'0 0.0
2018-Apr-21 22:30N 40°40' W 074°04'0 0.0
2018-Apr-21 22:01N 40°40' W 074°04'0 0.0
2018-Apr-21 21:31N 40°40' W 074°04'0 0.0
2018-Apr-21 21:00N 40°40' W 074°04'0 0.0
2018-Apr-21 20:31N 40°40' W 074°04'0 0.0
2018-Apr-21 20:00N 40°40' W 074°04'0 0.0
2018-Apr-21 19:31N 40°40' W 074°04'0 0.0
2018-Apr-21 19:01N 40°40' W 074°04'0 0.0
2018-Apr-21 18:30N 40°40' W 074°04'0 0.0
2018-Apr-21 18:00N 40°40' W 074°04'1 1.8
2018-Apr-21 17:31N 40°40' W 074°03'4 8.2
2018-Apr-21 17:00N 40°44' W 074°01'2 4.3
2018-Apr-21 16:29N 40°46' W 073°60'0 0.0
2018-Apr-21 16:00N 40°46' W 073°60'0 0.0
2018-Apr-21 15:30N 40°46' W 073°60'0 0.0
2018-Apr-21 15:00N 40°46' W 073°60'0 0.0
2018-Apr-21 14:30N 40°46' W 073°60'0 0.0
2018-Apr-21 14:00N 40°46' W 073°60'0 0.0
2018-Apr-21 13:30N 40°46' W 073°60'0 0.0
2018-Apr-21 13:00N 40°46' W 073°60'0 0.0
2018-Apr-21 12:30N 40°46' W 073°60'0 0.0
2018-Apr-21 12:00N 40°46' W 073°60'1 1.1
2018-Apr-21 11:30N 40°46' W 074°01'2 3.9
2018-Apr-21 11:00N 40°44' W 074°01'1 2.7
2018-Apr-21 10:30N 40°43' W 074°02'3 6.4
2018-Apr-21 10:01N 40°40' W 074°03'1 2.2
2018-Apr-21 09:31N 40°39' W 074°05'1 2.1
2018-Apr-21 09:00N 40°40' W 074°05'0 0.0
2018-Apr-21 08:30N 40°40' W 074°05'0 0.0
2018-Apr-21 08:00N 40°40' W 074°05'0 0.0
2018-Apr-21 07:31N 40°40' W 074°05'0 0.0
2018-Apr-21 07:00N 40°40' W 074°05'0 0.0
2018-Apr-21 06:30N 40°40' W 074°05'0 0.0
2018-Apr-21 06:00N 40°40' W 074°05'0 0.0
2018-Apr-21 05:30N 40°40' W 074°05'0 0.0
2018-Apr-21 05:00N 40°40' W 074°05'0 0.0
2018-Apr-21 04:31N 40°40' W 074°05'0 0.0
2018-Apr-21 04:00N 40°40' W 074°05'0 0.0
2018-Apr-21 03:31N 40°40' W 074°05'0 0.0
2018-Apr-21 03:01N 40°40' W 074°05'0 0.0
2018-Apr-21 02:31N 40°40' W 074°05'0 0.0
2018-Apr-21 02:00N 40°40' W 074°05'0 0.0
2018-Apr-21 01:31N 40°40' W 074°05'0 0.0
2018-Apr-21 01:00N 40°40' W 074°05'0 0.0
2018-Apr-21 00:30N 40°40' W 074°05'0 0.0
2018-Apr-21 00:01N 40°40' W 074°05'0 0.0
2018-Apr-20 23:30N 40°40' W 074°05'0 0.0
2018-Apr-20 23:00N 40°40' W 074°05'0 0.0
2018-Apr-20 22:31N 40°40' W 074°05'1 1.8
2018-Apr-20 22:01N 40°39' W 074°05'2 4.8
2018-Apr-20 21:30N 40°40' W 074°02'2 4.0
2018-Apr-20 21:00N 40°41' W 074°00'0 0.6
2018-Apr-20 20:31N 40°41' W 074°01'1 2.6
2018-Apr-20 20:00N 40°40' W 074°00'0 0.0
2018-Apr-20 19:30N 40°40' W 074°00'0 0.0
2018-Apr-20 19:00N 40°40' W 074°00'0 0.0
2018-Apr-20 18:30N 40°40' W 074°00'0 0.1
2018-Apr-20 18:00N 40°40' W 074°00'2 4.2
2018-Apr-20 17:30N 40°40' W 074°03'2 4.9
2018-Apr-20 17:00N 40°39' W 074°05'2 4.9
2018-Apr-20 16:30N 40°40' W 074°08'1 2.8
2018-Apr-20 16:00N 40°41' W 074°08'0 0.0
2018-Apr-20 15:30N 40°41' W 074°08'0 0.0
2018-Apr-20 14:59N 40°41' W 074°08'0 0.0
2018-Apr-20 14:30N 40°41' W 074°08'0 0.0
2018-Apr-20 14:01N 40°41' W 074°08'0 0.0
2018-Apr-20 13:30N 40°41' W 074°08'0 0.0
2018-Apr-20 13:00N 40°41' W 074°08'0 0.0
2018-Apr-20 12:30N 40°41' W 074°08'1 1.1
2018-Apr-20 11:59N 40°41' W 074°08'4 8.4
2018-Apr-20 11:31N 40°38' W 074°12'0 0.7
2018-Apr-20 11:00N 40°38' W 074°12'3 6.5
2018-Apr-20 10:30N 40°39' W 074°08'2 4.3
2018-Apr-20 10:00N 40°39' W 074°05'1 1.2
2018-Apr-20 09:30N 40°39' W 074°04'1 1.4
2018-Apr-20 09:00N 40°40' W 074°04'0 0.0
2018-Apr-20 08:30N 40°40' W 074°04'0 0.0
2018-Apr-20 08:00N 40°40' W 074°04'0 0.0
2018-Apr-20 07:30N 40°40' W 074°04'1 2.7
2018-Apr-20 07:00N 40°39' W 074°03'2 4.0
2018-Apr-20 06:30N 40°40' W 074°00'2 4.3
2018-Apr-20 06:00N 40°39' W 074°02'1 1.7
2018-Apr-20 05:30N 40°38' W 074°04'2 4.0
2018-Apr-20 05:00N 40°40' W 074°03'2 3.0
2018-Apr-20 04:30N 40°40' W 074°05'0 0.1
2018-Apr-20 04:00N 40°40' W 074°05'2 3.9
2018-Apr-20 03:30N 40°38' W 074°04'0 0.1
2018-Apr-20 03:00N 40°38' W 074°04'0 0.1
2018-Apr-20 02:30N 40°38' W 074°04'0 0.1
2018-Apr-20 02:00N 40°38' W 074°04'0 0.0
2018-Apr-20 01:29N 40°38' W 074°04'0 0.1
2018-Apr-20 01:00N 40°38' W 074°04'0 0.1
2018-Apr-20 00:30N 40°38' W 074°04'0 0.0
2018-Apr-20 00:00N 40°38' W 074°04'0 0.2
2018-Apr-19 23:30N 40°38' W 074°04'2 2.9
2018-Apr-19 22:58N 40°39' W 074°06'1 1.4
2018-Apr-19 22:30N 40°39' W 074°07'1 1.9
2018-Apr-19 21:59N 40°39' W 074°05'2 3.2
2018-Apr-19 21:30N 40°39' W 074°07'3 5.7
2018-Apr-19 21:00N 40°39' W 074°11'4 7.0
2018-Apr-19 20:26N 40°35' W 074°13'3 5.7
2018-Apr-19 19:58N 40°33' W 074°15'1 0.1
2018-Apr-19 13:32N 40°33' W 074°14'1 9.6
2018-Apr-19 13:27N 40°34' W 074°13'4 8.7
2018-Apr-19 13:00N 40°37' W 074°12'4 8.1
2018-Apr-19 12:29N 40°40' W 074°08'1 3.1
2018-Apr-19 12:00N 40°42' W 074°09'2 3.7
2018-Apr-19 11:30N 40°40' W 074°08'2 4.7
2018-Apr-19 11:00N 40°39' W 074°06'1 1.1
2018-Apr-19 10:31N 40°39' W 074°05'0 0.0
2018-Apr-19 10:01N 40°39' W 074°05'1 1.9
2018-Apr-19 09:30N 40°40' W 074°04'0 0.6
2018-Apr-19 09:01N 40°40' W 074°04'0 0.0
2018-Apr-19 08:30N 40°40' W 074°04'0 0.0
2018-Apr-19 08:01N 40°40' W 074°04'0 0.0
2018-Apr-19 07:30N 40°40' W 074°04'0 0.0
2018-Apr-19 07:00N 40°40' W 074°04'5 9.0
2018-Apr-19 06:30N 40°39' W 074°10'4 7.8
2018-Apr-19 05:57N 40°35' W 074°13'4 6.7
2018-Apr-19 05:26N 40°32' W 074°15'2 2.6
2018-Apr-19 04:39N 40°33' W 074°13'4 9.0
2018-Apr-19 04:14N 40°37' W 074°12'2 7.9
2018-Apr-19 04:00N 40°39' W 074°11'3 6.7
2018-Apr-19 03:30N 40°39' W 074°07'2 4.1
2018-Apr-19 03:00N 40°40' W 074°04'4 7.8
2018-Apr-19 02:31N 40°42' W 074°00'3 6.1
2018-Apr-19 01:59N 40°44' W 073°57'1 1.4
2018-Apr-19 01:30N 40°44' W 073°56'1 1.3
2018-Apr-19 01:00N 40°44' W 073°57'1 2.2
2018-Apr-19 00:31N 40°43' W 073°58'510.1
2018-Apr-19 00:00N 40°40' W 074°03'2 4.3
2018-Apr-18 23:31N 40°39' W 074°05'3 6.9
2018-Apr-18 23:00N 40°36' W 074°02'1 1.6
2018-Apr-18 22:30N 40°36' W 074°02'0 0.0
2018-Apr-18 22:00N 40°36' W 074°02'0 0.0
2018-Apr-18 21:29N 40°36' W 074°02'0 0.0
2018-Apr-18 21:00N 40°36' W 074°02'0 0.0
2018-Apr-18 20:30N 40°36' W 074°02'0 0.0
2018-Apr-18 20:01N 40°36' W 074°02'0 0.0
2018-Apr-18 19:29N 40°36' W 074°02'2 3.9
2018-Apr-18 19:00N 40°37' W 074°03'4 8.0
2018-Apr-18 18:30N 40°41' W 074°01'4 8.4
2018-Apr-18 18:00N 40°44' W 073°57'1 1.4
2018-Apr-18 17:31N 40°44' W 073°56'0 0.7
2018-Apr-18 17:00N 40°44' W 073°56'1 1.3
2018-Apr-18 16:30N 40°44' W 073°56'0 0.0
2018-Apr-18 16:00N 40°44' W 073°56'0 0.0
2018-Apr-18 15:30N 40°44' W 073°56'0 0.0
2018-Apr-18 15:00N 40°44' W 073°56'0 0.0
2018-Apr-18 14:30N 40°44' W 073°56'0 0.0
2018-Apr-18 13:59N 40°44' W 073°56'0 0.0
2018-Apr-18 13:30N 40°44' W 073°56'0 0.0
2018-Apr-18 13:00N 40°44' W 073°56'0 0.0
2018-Apr-18 12:30N 40°44' W 073°56'0 0.0
2018-Apr-18 12:00N 40°44' W 073°56'0 0.6
2018-Apr-18 11:31N 40°44' W 073°57'2 3.9
2018-Apr-18 11:00N 40°43' W 073°58'3 6.9
2018-Apr-18 10:31N 40°40' W 074°01'1 1.1
2018-Apr-18 10:00N 40°40' W 074°00'0 0.3
2018-Apr-18 09:31N 40°40' W 074°00'0 0.1
2018-Apr-18 09:00N 40°40' W 074°00'0 0.0
2018-Apr-18 08:30N 40°40' W 074°00'0 0.0
2018-Apr-18 08:00N 40°40' W 074°00'0 0.0
2018-Apr-18 07:31N 40°40' W 074°00'0 0.0
2018-Apr-18 07:01N 40°40' W 074°00'0 0.4
2018-Apr-18 06:30N 40°40' W 074°00'0 0.0
2018-Apr-18 06:00N 40°40' W 074°00'0 0.0
2018-Apr-18 05:30N 40°40' W 074°00'0 0.0
2018-Apr-18 05:00N 40°40' W 074°00'0 0.0
2018-Apr-18 04:30N 40°40' W 074°00'0 0.1
2018-Apr-18 04:01N 40°40' W 074°00'1 1.1
2018-Apr-18 03:30N 40°40' W 074°01'4 7.8
2018-Apr-18 03:01N 40°39' W 074°06'4 8.3
2018-Apr-18 02:30N 40°39' W 074°11'4 7.2
2018-Apr-18 01:59N 40°35' W 074°13'3 2.7
2018-Apr-18 00:50N 40°33' W 074°15'3 7.3
2018-Apr-18 00:27N 40°35' W 074°13'4 8.9
2018-Apr-17 23:59N 40°39' W 074°11'3 6.2
2018-Apr-17 23:29N 40°41' W 074°09'0 0.0
2018-Apr-17 23:00N 40°41' W 074°09'0 0.8
2018-Apr-17 22:29N 40°41' W 074°09'0 0.0
2018-Apr-17 22:00N 40°41' W 074°09'0 0.0
2018-Apr-17 21:30N 40°41' W 074°09'0 0.0
2018-Apr-17 21:00N 40°41' W 074°09'0 0.0
2018-Apr-17 20:30N 40°41' W 074°09'1 2.1
2018-Apr-17 20:00N 40°41' W 074°08'2 4.2
2018-Apr-17 19:30N 40°39' W 074°07'1 1.2
2018-Apr-17 19:01N 40°39' W 074°07'1 1.4
2018-Apr-17 18:30N 40°39' W 074°06'0 0.0
2018-Apr-17 18:00N 40°39' W 074°06'1 1.5
2018-Apr-17 17:31N 40°39' W 074°05'2 3.0
2018-Apr-17 17:00N 40°40' W 074°03'0 0.1
2018-Apr-17 16:30N 40°40' W 074°03'2 4.1
2018-Apr-17 16:00N 40°39' W 074°06'0 0.0
2018-Apr-17 15:30N 40°39' W 074°06'4 8.0
2018-Apr-17 15:00N 40°39' W 074°11'6 8.8
2018-Apr-17 14:22N 40°33' W 074°13'2 1.4
2018-Apr-17 13:15N 40°35' W 074°13'2 8.5
2018-Apr-17 12:59N 40°37' W 074°12'4 7.4
2018-Apr-17 12:30N 40°39' W 074°08'5 9.7
2018-Apr-17 12:00N 40°39' W 074°02'1 1.4
2018-Apr-17 11:31N 40°40' W 074°01'0 0.0
2018-Apr-17 11:00N 40°40' W 074°01'0 0.0
2018-Apr-17 10:30N 40°40' W 074°01'0 0.0
2018-Apr-17 10:00N 40°40' W 074°01'0 0.0
2018-Apr-17 09:30N 40°40' W 074°01'0 0.0
2018-Apr-17 09:00N 40°40' W 074°01'0 0.0
2018-Apr-17 08:30N 40°40' W 074°01'0 0.0
2018-Apr-17 08:00N 40°40' W 074°01'0 0.0
2018-Apr-17 07:30N 40°40' W 074°01'2 4.0
2018-Apr-17 07:00N 40°42' W 074°02'612.6
2018-Apr-17 06:30N 40°47' W 073°59'611.8
2018-Apr-17 06:00N 40°53' W 073°56'4 0.2
2018-Apr-16 11:28N 40°57' W 073°54'1 1.8
2018-Apr-16 10:57N 40°56' W 073°55'0 0.0
2018-Apr-16 10:30N 40°56' W 073°55'0 0.0
2018-Apr-16 09:52N 40°56' W 073°55'0 0.0
2018-Apr-16 09:28N 40°56' W 073°55'0 0.0
2018-Apr-16 09:00N 40°56' W 073°55'0 0.0
2018-Apr-16 08:29N 40°56' W 073°55'0 0.0
2018-Apr-16 07:59N 40°56' W 073°55'0 0.0
2018-Apr-16 07:28N 40°56' W 073°55'0 0.0
2018-Apr-16 05:57N 40°56' W 073°55'0 0.0
2018-Apr-16 05:27N 40°56' W 073°55'0 0.0
2018-Apr-16 04:59N 40°56' W 073°55'0 0.3
2018-Apr-16 04:30N 40°56' W 073°55'0 0.1
2018-Apr-16 03:58N 40°56' W 073°55'0 0.1
2018-Apr-16 03:24N 40°56' W 073°55'0 0.0
2018-Apr-16 03:00N 40°56' W 073°55'0 0.0
2018-Apr-16 02:23N 40°56' W 073°55'0 0.0
2018-Apr-16 02:00N 40°56' W 073°55'0 0.0
2018-Apr-16 01:30N 40°56' W 073°55'0 0.0
2018-Apr-16 00:45N 40°56' W 073°55'0 0.1
2018-Apr-16 00:30N 40°56' W 073°55'0 0.2
2018-Apr-16 00:00N 40°56' W 073°55'0 0.3
2018-Apr-15 23:28N 40°56' W 073°55'0 0.1
2018-Apr-15 22:39N 40°56' W 073°55'0 0.0
2018-Apr-15 20:44N 40°56' W 073°55'0 0.0
2018-Apr-15 20:09N 40°56' W 073°55'0 0.0
2018-Apr-15 19:45N 40°56' W 073°55'0 0.0
2018-Apr-15 19:23N 40°56' W 073°55'0 0.0
2018-Apr-15 17:35N 40°56' W 073°55'0 0.0
2018-Apr-15 16:27N 40°56' W 073°55'0 0.1
2018-Apr-15 15:58N 40°56' W 073°55'2 3.6
2018-Apr-15 15:27N 40°54' W 073°55'4 9.5
2018-Apr-15 15:00N 40°50' W 073°57'5 9.4
2018-Apr-15 14:29N 40°46' W 074°00'4 9.2
2018-Apr-15 14:00N 40°42' W 074°02'4 8.3
2018-Apr-15 13:30N 40°39' W 074°06'4 8.2
2018-Apr-15 12:59N 40°38' W 074°12'2 4.7
2018-Apr-15 12:30N 40°36' W 074°12'1 2.5
2018-Apr-15 11:59N 40°35' W 074°13'2 1.9
2018-Apr-15 10:58N 40°34' W 074°14'0 0.0
2018-Apr-15 10:25N 40°34' W 074°14'0 0.0
2018-Apr-15 10:00N 40°34' W 074°14'0 0.0
2018-Apr-15 09:30N 40°34' W 074°14'0 0.0
2018-Apr-15 08:45N 40°34' W 074°14'3 5.4
2018-Apr-15 08:08N 40°36' W 074°12'1 9.4
2018-Apr-15 07:59N 40°38' W 074°12'4 8.2
2018-Apr-15 07:30N 40°39' W 074°07'5 5.1
2018-Apr-15 06:31N 40°40' W 074°01'3 6.0
2018-Apr-15 06:01N 40°39' W 074°04'3 6.5
2018-Apr-15 05:30N 40°40' W 074°09'1 3.0
2018-Apr-15 05:00N 40°41' W 074°09'0 0.0
2018-Apr-15 04:30N 40°41' W 074°09'0 0.0
2018-Apr-15 03:59N 40°41' W 074°09'0 0.0
2018-Apr-15 03:30N 40°41' W 074°09'0 0.0
2018-Apr-15 03:00N 40°41' W 074°09'0 0.0
2018-Apr-15 02:30N 40°41' W 074°09'0 0.0
2018-Apr-15 02:00N 40°41' W 074°09'1 2.6
2018-Apr-15 01:30N 40°40' W 074°09'5 8.8
2018-Apr-15 01:00N 40°36' W 074°12'0 0.5
2018-Apr-15 00:30N 40°36' W 074°12'1 1.8
2018-Apr-14 23:59N 40°37' W 074°12'3 7.0
2018-Apr-14 23:30N 40°39' W 074°08'5 9.2
2018-Apr-14 23:00N 40°40' W 074°03'2 4.3
2018-Apr-14 22:31N 40°41' W 074°00'4 7.1
2018-Apr-14 22:01N 40°40' W 074°04'4 7.7
2018-Apr-14 21:30N 40°39' W 074°09'3 6.7
2018-Apr-14 21:00N 40°36' W 074°12'3 6.4
2018-Apr-14 20:30N 40°34' W 074°14'0 0.0
2018-Apr-14 19:59N 40°34' W 074°14'0 0.0
2018-Apr-14 18:34N 40°34' W 074°14'0 0.0
2018-Apr-14 18:29N 40°34' W 074°14'0 0.0
2018-Apr-14 16:45N 40°34' W 074°14'0 0.2
2018-Apr-14 15:52N 40°33' W 074°14'3 8.1
2018-Apr-14 15:28N 40°36' W 074°12'3 7.0
2018-Apr-14 15:00N 40°39' W 074°09'4 7.4
2018-Apr-14 14:30N 40°39' W 074°05'3 5.6
2018-Apr-14 14:00N 40°40' W 074°01'0 0.0
2018-Apr-14 13:30N 40°40' W 074°01'0 0.0
2018-Apr-14 13:00N 40°40' W 074°01'0 0.0
2018-Apr-14 12:31N 40°40' W 074°01'  
Track history (hours):
 
Tides and Currents Weather Stations Pressure Air Temp Water Temp Dewpoint Dewpoint Depression Visibility Wind Speed Wind Dir Waves Ship Positions

Hunting Creek

Owner: Vane Line Bunkering, Inc., Philadelphia, PA. More information available from US FCC via Universal Licensing System and Coast Guard Vessel Documentation Center.

Last reported at 2018-Apr-24 12:30 UTC. Time now 2018-Apr-24 12:42 UTC.
Position N 40°40' W 074°01'.

Length 31 m; draft 4.3 m.

Type: Towing. MMSI: 367506050.

Date/timePositionNaut miles runAvg speedWind from/ knotsBaromVisibWave heightAir tempDewpointWater temp
2018-Apr-24 12:30N 40°40' W 074°01'0 0.5
2018-Apr-24 12:01N 40°40' W 074°01'2 3.4
2018-Apr-24 11:31N 40°42' W 074°00'4 7.3
2018-Apr-24 11:00N 40°45' W 073°58'5 9.5
2018-Apr-24 10:26N 40°48' W 073°52'5 0.3
2018-Apr-23 15:03N 40°45' W 073°58'1 8.4
2018-Apr-23 14:58N 40°44' W 073°58'3 7.4
2018-Apr-23 14:30N 40°42' W 074°00'4 7.7
2018-Apr-23 13:59N 40°39' W 074°05'1 2.6
2018-Apr-23 13:29N 40°39' W 074°06'1 0.2
2018-Apr-23 10:22N 40°39' W 074°07'0 0.0
2018-Apr-23 09:50N 40°39' W 074°07'0 0.0
2018-Apr-23 05:01N 40°39' W 074°07'0 0.0
2018-Apr-23 04:57N 40°39' W 074°07'0 0.0
2018-Apr-23 01:53N 40°39' W 074°07'0 0.0
2018-Apr-23 01:25N 40°39' W 074°07'0 0.0
2018-Apr-23 00:40N 40°39' W 074°07'1 6.3
2018-Apr-23 00:30N 40°39' W 074°08'3 2.7
2018-Apr-22 23:32N 40°41' W 074°09'0 0.2
2018-Apr-22 23:30N 40°41' W 074°09'0 0.3
2018-Apr-22 23:01N 40°41' W 074°09'3 4.9
2018-Apr-22 22:29N 40°39' W 074°07'3 6.6
2018-Apr-22 22:00N 40°39' W 074°03'2 3.5
2018-Apr-22 21:31N 40°40' W 074°01'0 0.0
2018-Apr-22 21:01N 40°40' W 074°01'2 3.7
2018-Apr-22 20:30N 40°41' W 074°02'5 9.3
2018-Apr-22 20:00N 40°46' W 074°00'0 0.1
2018-Apr-22 16:43N 40°46' W 074°00'0 0.3
2018-Apr-22 16:24N 40°46' W 074°00'0 0.3
2018-Apr-22 15:54N 40°46' W 074°00'0 0.0
2018-Apr-22 13:12N 40°46' W 074°00'1 3.6
2018-Apr-22 12:59N 40°45' W 074°01'3 5.6
2018-Apr-22 12:31N 40°43' W 074°01'3 6.1
2018-Apr-22 12:01N 40°40' W 074°03'2 3.6
2018-Apr-22 11:30N 40°39' W 074°05'0 0.1
2018-Apr-22 11:01N 40°39' W 074°05'1 1.6
2018-Apr-22 10:30N 40°40' W 074°04'1 2.3
2018-Apr-22 10:00N 40°40' W 074°03'2 4.7
2018-Apr-22 09:30N 40°41' W 074°00'0 0.3
2018-Apr-22 09:00N 40°41' W 074°00'0 0.0
2018-Apr-22 08:30N 40°41' W 074°00'0 0.0
2018-Apr-22 08:00N 40°41' W 074°00'0 0.0
2018-Apr-22 07:31N 40°41' W 074°00'0 0.0
2018-Apr-22 07:01N 40°41' W 074°00'2 4.6
2018-Apr-22 06:30N 40°40' W 074°03'3 5.8
2018-Apr-22 06:00N 40°39' W 074°06'2 4.5
2018-Apr-22 05:31N 40°39' W 074°03'2 4.6
2018-Apr-22 05:00N 40°40' W 074°00'1 1.0
2018-Apr-22 04:30N 40°40' W 074°01'0 0.0
2018-Apr-22 04:00N 40°40' W 074°01'0 0.0
2018-Apr-22 03:30N 40°40' W 074°01'0 0.0
2018-Apr-22 03:01N 40°40' W 074°01'0 0.0
2018-Apr-22 02:30N 40°40' W 074°01'0 0.0
2018-Apr-22 02:01N 40°40' W 074°01'0 0.1
2018-Apr-22 01:30N 40°40' W 074°01'0 0.0
2018-Apr-22 01:00N 40°40' W 074°01'0 0.0
2018-Apr-22 00:30N 40°40' W 074°01'2 4.5
2018-Apr-22 00:00N 40°38' W 074°03'1 1.1
2018-Apr-21 23:30N 40°38' W 074°04'2 4.5
2018-Apr-21 23:01N 40°40' W 074°04'0 0.0
2018-Apr-21 22:30N 40°40' W 074°04'0 0.0
2018-Apr-21 22:01N 40°40' W 074°04'0 0.0
2018-Apr-21 21:31N 40°40' W 074°04'0 0.0
2018-Apr-21 21:00N 40°40' W 074°04'0 0.0
2018-Apr-21 20:31N 40°40' W 074°04'0 0.0
2018-Apr-21 20:00N 40°40' W 074°04'0 0.0
2018-Apr-21 19:31N 40°40' W 074°04'0 0.0
2018-Apr-21 19:01N 40°40' W 074°04'0 0.0
2018-Apr-21 18:30N 40°40' W 074°04'0 0.0
2018-Apr-21 18:00N 40°40' W 074°04'1 1.8
2018-Apr-21 17:31N 40°40' W 074°03'4 8.2
2018-Apr-21 17:00N 40°44' W 074°01'2 4.3
2018-Apr-21 16:29N 40°46' W 073°60'0 0.0
2018-Apr-21 16:00N 40°46' W 073°60'0 0.0
2018-Apr-21 15:30N 40°46' W 073°60'0 0.0
2018-Apr-21 15:00N 40°46' W 073°60'0 0.0
2018-Apr-21 14:30N 40°46' W 073°60'0 0.0
2018-Apr-21 14:00N 40°46' W 073°60'0 0.0
2018-Apr-21 13:30N 40°46' W 073°60'0 0.0
2018-Apr-21 13:00N 40°46' W 073°60'0 0.0
2018-Apr-21 12:30N 40°46' W 073°60'0 0.0
2018-Apr-21 12:00N 40°46' W 073°60'1 1.1
2018-Apr-21 11:30N 40°46' W 074°01'2 3.9
2018-Apr-21 11:00N 40°44' W 074°01'1 2.7
2018-Apr-21 10:30N 40°43' W 074°02'3 6.4
2018-Apr-21 10:01N 40°40' W 074°03'1 2.2
2018-Apr-21 09:31N 40°39' W 074°05'1 2.1
2018-Apr-21 09:00N 40°40' W 074°05'0 0.0
2018-Apr-21 08:30N 40°40' W 074°05'0 0.0
2018-Apr-21 08:00N 40°40' W 074°05'0 0.0
2018-Apr-21 07:31N 40°40' W 074°05'0 0.0
2018-Apr-21 07:00N 40°40' W 074°05'0 0.0
2018-Apr-21 06:30N 40°40' W 074°05'0 0.0
2018-Apr-21 06:00N 40°40' W 074°05'0 0.0
2018-Apr-21 05:30N 40°40' W 074°05'0 0.0
2018-Apr-21 05:00N 40°40' W 074°05'0 0.0
2018-Apr-21 04:31N 40°40' W 074°05'0 0.0
2018-Apr-21 04:00N 40°40' W 074°05'0 0.0
2018-Apr-21 03:31N 40°40' W 074°05'0 0.0
2018-Apr-21 03:01N 40°40' W 074°05'0 0.0
2018-Apr-21 02:31N 40°40' W 074°05'0 0.0
2018-Apr-21 02:00N 40°40' W 074°05'0 0.0
2018-Apr-21 01:31N 40°40' W 074°05'0 0.0
2018-Apr-21 01:00N 40°40' W 074°05'0 0.0
2018-Apr-21 00:30N 40°40' W 074°05'0 0.0
2018-Apr-21 00:01N 40°40' W 074°05'0 0.0
2018-Apr-20 23:30N 40°40' W 074°05'0 0.0
2018-Apr-20 23:00N 40°40' W 074°05'0 0.0
2018-Apr-20 22:31N 40°40' W 074°05'1 1.8
2018-Apr-20 22:01N 40°39' W 074°05'2 4.8
2018-Apr-20 21:30N 40°40' W 074°02'2 4.0
2018-Apr-20 21:00N 40°41' W 074°00'0 0.6
2018-Apr-20 20:31N 40°41' W 074°01'1 2.6
2018-Apr-20 20:00N 40°40' W 074°00'0 0.0
2018-Apr-20 19:30N 40°40' W 074°00'0 0.0
2018-Apr-20 19:00N 40°40' W 074°00'0 0.0
2018-Apr-20 18:30N 40°40' W 074°00'0 0.1
2018-Apr-20 18:00N 40°40' W 074°00'2 4.2
2018-Apr-20 17:30N 40°40' W 074°03'2 4.9
2018-Apr-20 17:00N 40°39' W 074°05'2 4.9
2018-Apr-20 16:30N 40°40' W 074°08'1 2.8
2018-Apr-20 16:00N 40°41' W 074°08'0 0.0
2018-Apr-20 15:30N 40°41' W 074°08'0 0.0
2018-Apr-20 14:59N 40°41' W 074°08'0 0.0
2018-Apr-20 14:30N 40°41' W 074°08'0 0.0
2018-Apr-20 14:01N 40°41' W 074°08'0 0.0
2018-Apr-20 13:30N 40°41' W 074°08'0 0.0
2018-Apr-20 13:00N 40°41' W 074°08'0 0.0
2018-Apr-20 12:30N 40°41' W 074°08'1 1.1
2018-Apr-20 11:59N 40°41' W 074°08'4 8.4
2018-Apr-20 11:31N 40°38' W 074°12'0 0.7
2018-Apr-20 11:00N 40°38' W 074°12'3 6.5
2018-Apr-20 10:30N 40°39' W 074°08'2 4.3
2018-Apr-20 10:00N 40°39' W 074°05'1 1.2
2018-Apr-20 09:30N 40°39' W 074°04'1 1.4
2018-Apr-20 09:00N 40°40' W 074°04'0 0.0
2018-Apr-20 08:30N 40°40' W 074°04'0 0.0
2018-Apr-20 08:00N 40°40' W 074°04'0 0.0
2018-Apr-20 07:30N 40°40' W 074°04'1 2.7
2018-Apr-20 07:00N 40°39' W 074°03'2 4.0
2018-Apr-20 06:30N 40°40' W 074°00'2 4.3
2018-Apr-20 06:00N 40°39' W 074°02'1 1.7
2018-Apr-20 05:30N 40°38' W 074°04'2 4.0
2018-Apr-20 05:00N 40°40' W 074°03'2 3.0
2018-Apr-20 04:30N 40°40' W 074°05'0 0.1
2018-Apr-20 04:00N 40°40' W 074°05'2 3.9
2018-Apr-20 03:30N 40°38' W 074°04'0 0.1
2018-Apr-20 03:00N 40°38' W 074°04'0 0.1
2018-Apr-20 02:30N 40°38' W 074°04'0 0.1
2018-Apr-20 02:00N 40°38' W 074°04'0 0.0
2018-Apr-20 01:29N 40°38' W 074°04'0 0.1
2018-Apr-20 01:00N 40°38' W 074°04'0 0.1
2018-Apr-20 00:30N 40°38' W 074°04'0 0.0
2018-Apr-20 00:00N 40°38' W 074°04'0 0.2
2018-Apr-19 23:30N 40°38' W 074°04'2 2.9
2018-Apr-19 22:58N 40°39' W 074°06'1 1.4
2018-Apr-19 22:30N 40°39' W 074°07'1 1.9
2018-Apr-19 21:59N 40°39' W 074°05'2 3.2
2018-Apr-19 21:30N 40°39' W 074°07'3 5.7
2018-Apr-19 21:00N 40°39' W 074°11'4 7.0
2018-Apr-19 20:26N 40°35' W 074°13'3 5.7
2018-Apr-19 19:58N 40°33' W 074°15'1 0.1
2018-Apr-19 13:32N 40°33' W 074°14'1 9.6
2018-Apr-19 13:27N 40°34' W 074°13'4 8.7
2018-Apr-19 13:00N 40°37' W 074°12'4 8.1
2018-Apr-19 12:29N 40°40' W 074°08'1 3.1
2018-Apr-19 12:00N 40°42' W 074°09'2 3.7
2018-Apr-19 11:30N 40°40' W 074°08'2 4.7
2018-Apr-19 11:00N 40°39' W 074°06'1 1.1
2018-Apr-19 10:31N 40°39' W 074°05'0 0.0
2018-Apr-19 10:01N 40°39' W 074°05'1 1.9
2018-Apr-19 09:30N 40°40' W 074°04'0 0.6
2018-Apr-19 09:01N 40°40' W 074°04'0 0.0
2018-Apr-19 08:30N 40°40' W 074°04'0 0.0
2018-Apr-19 08:01N 40°40' W 074°04'0 0.0
2018-Apr-19 07:30N 40°40' W 074°04'0 0.0
2018-Apr-19 07:00N 40°40' W 074°04'5 9.0
2018-Apr-19 06:30N 40°39' W 074°10'4 7.8
2018-Apr-19 05:57N 40°35' W 074°13'4 6.7
2018-Apr-19 05:26N 40°32' W 074°15'2 2.6
2018-Apr-19 04:39N 40°33' W 074°13'4 9.0
2018-Apr-19 04:14N 40°37' W 074°12'2 7.9
2018-Apr-19 04:00N 40°39' W 074°11'3 6.7
2018-Apr-19 03:30N 40°39' W 074°07'2 4.1
2018-Apr-19 03:00N 40°40' W 074°04'4 7.8
2018-Apr-19 02:31N 40°42' W 074°00'3 6.1
2018-Apr-19 01:59N 40°44' W 073°57'1 1.4
2018-Apr-19 01:30N 40°44' W 073°56'1 1.3
2018-Apr-19 01:00N 40°44' W 073°57'1 2.2
2018-Apr-19 00:31N 40°43' W 073°58'510.1
2018-Apr-19 00:00N 40°40' W 074°03'2 4.3
2018-Apr-18 23:31N 40°39' W 074°05'3 6.9
2018-Apr-18 23:00N 40°36' W 074°02'1 1.6
2018-Apr-18 22:30N 40°36' W 074°02'0 0.0
2018-Apr-18 22:00N 40°36' W 074°02'0 0.0
2018-Apr-18 21:29N 40°36' W 074°02'0 0.0
2018-Apr-18 21:00N 40°36' W 074°02'0 0.0
2018-Apr-18 20:30N 40°36' W 074°02'0 0.0
2018-Apr-18 20:01N 40°36' W 074°02'0 0.0
2018-Apr-18 19:29N 40°36' W 074°02'2 3.9
2018-Apr-18 19:00N 40°37' W 074°03'4 8.0
2018-Apr-18 18:30N 40°41' W 074°01'4 8.4
2018-Apr-18 18:00N 40°44' W 073°57'1 1.4
2018-Apr-18 17:31N 40°44' W 073°56'0 0.7
2018-Apr-18 17:00N 40°44' W 073°56'1 1.3
2018-Apr-18 16:30N 40°44' W 073°56'0 0.0
2018-Apr-18 16:00N 40°44' W 073°56'0 0.0
2018-Apr-18 15:30N 40°44' W 073°56'0 0.0
2018-Apr-18 15:00N 40°44' W 073°56'0 0.0
2018-Apr-18 14:30N 40°44' W 073°56'0 0.0
2018-Apr-18 13:59N 40°44' W 073°56'0 0.0
2018-Apr-18 13:30N 40°44' W 073°56'0 0.0
2018-Apr-18 13:00N 40°44' W 073°56'0 0.0
2018-Apr-18 12:30N 40°44' W 073°56'0 0.0
2018-Apr-18 12:00N 40°44' W 073°56'0 0.6
2018-Apr-18 11:31N 40°44' W 073°57'2 3.9
2018-Apr-18 11:00N 40°43' W 073°58'3 6.9
2018-Apr-18 10:31N 40°40' W 074°01'1 1.1
2018-Apr-18 10:00N 40°40' W 074°00'0 0.3
2018-Apr-18 09:31N 40°40' W 074°00'0 0.1
2018-Apr-18 09:00N 40°40' W 074°00'0 0.0
2018-Apr-18 08:30N 40°40' W 074°00'0 0.0
2018-Apr-18 08:00N 40°40' W 074°00'0 0.0
2018-Apr-18 07:31N 40°40' W 074°00'0 0.0
2018-Apr-18 07:01N 40°40' W 074°00'0 0.4
2018-Apr-18 06:30N 40°40' W 074°00'0 0.0
2018-Apr-18 06:00N 40°40' W 074°00'0 0.0
2018-Apr-18 05:30N 40°40' W 074°00'0 0.0
2018-Apr-18 05:00N 40°40' W 074°00'0 0.0
2018-Apr-18 04:30N 40°40' W 074°00'0 0.1
2018-Apr-18 04:01N 40°40' W 074°00'1 1.1
2018-Apr-18 03:30N 40°40' W 074°01'4 7.8
2018-Apr-18 03:01N 40°39' W 074°06'4 8.3
2018-Apr-18 02:30N 40°39' W 074°11'4 7.2
2018-Apr-18 01:59N 40°35' W 074°13'3 2.7
2018-Apr-18 00:50N 40°33' W 074°15'3 7.3
2018-Apr-18 00:27N 40°35' W 074°13'4 8.9
2018-Apr-17 23:59N 40°39' W 074°11'3 6.2
2018-Apr-17 23:29N 40°41' W 074°09'0 0.0
2018-Apr-17 23:00N 40°41' W 074°09'0 0.8
2018-Apr-17 22:29N 40°41' W 074°09'0 0.0
2018-Apr-17 22:00N 40°41' W 074°09'0 0.0
2018-Apr-17 21:30N 40°41' W 074°09'0 0.0
2018-Apr-17 21:00N 40°41' W 074°09'0 0.0
2018-Apr-17 20:30N 40°41' W 074°09'1 2.1
2018-Apr-17 20:00N 40°41' W 074°08'2 4.2
2018-Apr-17 19:30N 40°39' W 074°07'1 1.2
2018-Apr-17 19:01N 40°39' W 074°07'1 1.4
2018-Apr-17 18:30N 40°39' W 074°06'0 0.0
2018-Apr-17 18:00N 40°39' W 074°06'1 1.5
2018-Apr-17 17:31N 40°39' W 074°05'2 3.0
2018-Apr-17 17:00N 40°40' W 074°03'0 0.1
2018-Apr-17 16:30N 40°40' W 074°03'2 4.1
2018-Apr-17 16:00N 40°39' W 074°06'0 0.0
2018-Apr-17 15:30N 40°39' W 074°06'4 8.0
2018-Apr-17 15:00N 40°39' W 074°11'6 8.8
2018-Apr-17 14:22N 40°33' W 074°13'2 1.4
2018-Apr-17 13:15N 40°35' W 074°13'2 8.5
2018-Apr-17 12:59N 40°37' W 074°12'4 7.4
2018-Apr-17 12:30N 40°39' W 074°08'5 9.7
2018-Apr-17 12:00N 40°39' W 074°02'1 1.4
2018-Apr-17 11:31N 40°40' W 074°01'0 0.0
2018-Apr-17 11:00N 40°40' W 074°01'0 0.0
2018-Apr-17 10:30N 40°40' W 074°01'0 0.0
2018-Apr-17 10:00N 40°40' W 074°01'0 0.0
2018-Apr-17 09:30N 40°40' W 074°01'0 0.0
2018-Apr-17 09:00N 40°40' W 074°01'0 0.0
2018-Apr-17 08:30N 40°40' W 074°01'0 0.0
2018-Apr-17 08:00N 40°40' W 074°01'0 0.0
2018-Apr-17 07:30N 40°40' W 074°01'2 4.0
2018-Apr-17 07:00N 40°42' W 074°02'612.6
2018-Apr-17 06:30N 40°47' W 073°59'611.8
2018-Apr-17 06:00N 40°53' W 073°56'4 0.2
2018-Apr-16 11:28N 40°57' W 073°54'1 1.8
2018-Apr-16 10:57N 40°56' W 073°55'0 0.0
2018-Apr-16 10:30N 40°56' W 073°55'0 0.0
2018-Apr-16 09:52N 40°56' W 073°55'0 0.0
2018-Apr-16 09:28N 40°56' W 073°55'0 0.0
2018-Apr-16 09:00N 40°56' W 073°55'0 0.0
2018-Apr-16 08:29N 40°56' W 073°55'0 0.0
2018-Apr-16 07:59N 40°56' W 073°55'0 0.0
2018-Apr-16 07:28N 40°56' W 073°55'0 0.0
2018-Apr-16 05:57N 40°56' W 073°55'0 0.0
2018-Apr-16 05:27N 40°56' W 073°55'0 0.0
2018-Apr-16 04:59N 40°56' W 073°55'0 0.3
2018-Apr-16 04:30N 40°56' W 073°55'0 0.1
2018-Apr-16 03:58N 40°56' W 073°55'0 0.1
2018-Apr-16 03:24N 40°56' W 073°55'0 0.0
2018-Apr-16 03:00N 40°56' W 073°55'0 0.0
2018-Apr-16 02:23N 40°56' W 073°55'0 0.0
2018-Apr-16 02:00N 40°56' W 073°55'0 0.0
2018-Apr-16 01:30N 40°56' W 073°55'0 0.0
2018-Apr-16 00:45N 40°56' W 073°55'0 0.1
2018-Apr-16 00:30N 40°56' W 073°55'0 0.2
2018-Apr-16 00:00N 40°56' W 073°55'0 0.3
2018-Apr-15 23:28N 40°56' W 073°55'0 0.1
2018-Apr-15 22:39N 40°56' W 073°55'0 0.0
2018-Apr-15 20:44N 40°56' W 073°55'0 0.0
2018-Apr-15 20:09N 40°56' W 073°55'0 0.0
2018-Apr-15 19:45N 40°56' W 073°55'0 0.0
2018-Apr-15 19:23N 40°56' W 073°55'0 0.0
2018-Apr-15 17:35N 40°56' W 073°55'0 0.0
2018-Apr-15 16:27N 40°56' W 073°55'0 0.1
2018-Apr-15 15:58N 40°56' W 073°55'2 3.6
2018-Apr-15 15:27N 40°54' W 073°55'4 9.5
2018-Apr-15 15:00N 40°50' W 073°57'5 9.4
2018-Apr-15 14:29N 40°46' W 074°00'4 9.2
2018-Apr-15 14:00N 40°42' W 074°02'4 8.3
2018-Apr-15 13:30N 40°39' W 074°06'4 8.2
2018-Apr-15 12:59N 40°38' W 074°12'2 4.7
2018-Apr-15 12:30N 40°36' W 074°12'1 2.5
2018-Apr-15 11:59N 40°35' W 074°13'2 1.9
2018-Apr-15 10:58N 40°34' W 074°14'0 0.0
2018-Apr-15 10:25N 40°34' W 074°14'0 0.0
2018-Apr-15 10:00N 40°34' W 074°14'0 0.0
2018-Apr-15 09:30N 40°34' W 074°14'0 0.0
2018-Apr-15 08:45N 40°34' W 074°14'3 5.4
2018-Apr-15 08:08N 40°36' W 074°12'1 9.4
2018-Apr-15 07:59N 40°38' W 074°12'4 8.2
2018-Apr-15 07:30N 40°39' W 074°07'5 5.1
2018-Apr-15 06:31N 40°40' W 074°01'3 6.0
2018-Apr-15 06:01N 40°39' W 074°04'3 6.5
2018-Apr-15 05:30N 40°40' W 074°09'1 3.0
2018-Apr-15 05:00N 40°41' W 074°09'0 0.0
2018-Apr-15 04:30N 40°41' W 074°09'0 0.0
2018-Apr-15 03:59N 40°41' W 074°09'0 0.0
2018-Apr-15 03:30N 40°41' W 074°09'0 0.0
2018-Apr-15 03:00N 40°41' W 074°09'0 0.0
2018-Apr-15 02:30N 40°41' W 074°09'0 0.0
2018-Apr-15 02:00N 40°41' W 074°09'1 2.6
2018-Apr-15 01:30N 40°40' W 074°09'5 8.8
2018-Apr-15 01:00N 40°36' W 074°12'0 0.5
2018-Apr-15 00:30N 40°36' W 074°12'1 1.8
2018-Apr-14 23:59N 40°37' W 074°12'3 7.0
2018-Apr-14 23:30N 40°39' W 074°08'5 9.2
2018-Apr-14 23:00N 40°40' W 074°03'2 4.3
2018-Apr-14 22:31N 40°41' W 074°00'4 7.1
2018-Apr-14 22:01N 40°40' W 074°04'4 7.7
2018-Apr-14 21:30N 40°39' W 074°09'3 6.7
2018-Apr-14 21:00N 40°36' W 074°12'3 6.4
2018-Apr-14 20:30N 40°34' W 074°14'0 0.0
2018-Apr-14 19:59N 40°34' W 074°14'0 0.0
2018-Apr-14 18:34N 40°34' W 074°14'0 0.0
2018-Apr-14 18:29N 40°34' W 074°14'0 0.0
2018-Apr-14 16:45N 40°34' W 074°14'0 0.2
2018-Apr-14 15:52N 40°33' W 074°14'3 8.1
2018-Apr-14 15:28N 40°36' W 074°12'3 7.0
2018-Apr-14 15:00N 40°39' W 074°09'4 7.4
2018-Apr-14 14:30N 40°39' W 074°05'3 5.6
2018-Apr-14 14:00N 40°40' W 074°01'0 0.0
2018-Apr-14 13:30N 40°40' W 074°01'0 0.0
2018-Apr-14 13:00N 40°40' W 074°01'0 0.0
2018-Apr-14 12:31N 40°40' W 074°01'  

Dump ship's entire track history